Terminal Aerodrome Forecast
Issued by NWS

Home | Current Version | Previous Version | Text Only | Print | Product List | Glossary On
Versions: 1 2 3 4 5 6 7 8 9 10 11 12 13 14 15 16 17
000
FTUS41 KPBZ 282300
TAFLBE
TAF
KLBE 282331Z 2900/2924 30006KT 6SM BR SCT012 OVC025
      TEMPO 2900/2902 5SM -DZ BR OVC012
     FM290600 32004KT P6SM BKN025
      TEMPO 2908/2912 BKN012 OVC025
     FM291600 35004KT P6SM OVC100
     FM291800 34005KT P6SM BKN250=

USA.gov is the U.S. government's official web portal to all federal, state and local government web resources and services.